createdAt,value
2024-05-09T00:01:29.865Z,100832.05
2024-05-09T00:06:32.838Z,100830.88
2024-05-09T00:11:35.880Z,100831.79
2024-05-09T00:16:38.694Z,100835.88
2024-05-09T00:21:45.217Z,100832.80
2024-05-09T00:26:48.879Z,100833.37
2024-05-09T00:31:51.733Z,100825.71
2024-05-09T00:36:55.247Z,100821.59
2024-05-09T00:41:59.683Z,100827.94
2024-05-09T00:47:03.514Z,100833.84
2024-05-09T00:52:07.579Z,100844.45
2024-05-09T00:57:10.572Z,100847.00
2024-05-09T01:02:14.109Z,100840.02
2024-05-09T01:07:17.119Z,100844.50
2024-05-09T01:12:20.193Z,100846.84
2024-05-09T01:17:23.303Z,100846.17
2024-05-09T01:22:28.813Z,100850.10
2024-05-09T01:27:32.293Z,100845.09
2024-05-09T01:32:35.151Z,100843.43
2024-05-09T01:37:37.961Z,100837.90
2024-05-09T01:42:40.902Z,100838.67
2024-05-09T01:47:43.884Z,100845.06
2024-05-09T01:52:46.961Z,100846.35
2024-05-09T01:57:49.897Z,100844.60
2024-05-09T02:02:52.828Z,100841.88
2024-05-09T02:07:56.151Z,100840.89
2024-05-09T02:12:59.087Z,100850.23
2024-05-09T02:18:02.236Z,100851.70
2024-05-09T02:23:06.768Z,100856.48
2024-05-09T02:28:10.355Z,100861.27
2024-05-09T02:33:14.430Z,100868.31
2024-05-09T02:38:18.090Z,100869.60
2024-05-09T02:43:20.996Z,100882.25
2024-05-09T02:48:24.189Z,100881.55
2024-05-09T02:53:27.085Z,100881.04
2024-05-09T02:58:29.983Z,100881.04
2024-05-09T03:03:33.981Z,100883.67
2024-05-09T03:08:37.134Z,100887.36
2024-05-09T03:13:41.975Z,100879.31
2024-05-09T03:18:45.447Z,100881.77
2024-05-09T03:23:51.834Z,100880.89
2024-05-09T03:28:55.366Z,100882.65
2024-05-09T03:33:58.662Z,100882.27
2024-05-09T03:39:01.546Z,100886.30
2024-05-09T03:44:08.250Z,100893.16
2024-05-09T03:49:11.566Z,100892.63
2024-05-09T03:54:14.705Z,100894.35
2024-05-09T03:59:17.591Z,100907.45
2024-05-09T04:04:21.379Z,100907.62
2024-05-09T04:09:24.403Z,100908.29
2024-05-09T04:14:27.526Z,100910.73
2024-05-09T04:19:30.603Z,100906.67
2024-05-09T04:24:33.415Z,100913.48
2024-05-09T04:29:37.678Z,100915.56
2024-05-09T04:34:40.549Z,100915.90
2024-05-09T04:39:43.231Z,100914.65
2024-05-09T04:44:46.112Z,100913.86
2024-05-09T04:49:48.986Z,100913.60
2024-05-09T05:00:53.128Z,100910.03
2024-05-09T05:05:56.080Z,100909.23
2024-05-09T05:10:59.044Z,100912.59
2024-05-09T05:16:02.660Z,100919.16
2024-05-09T05:21:05.909Z,100914.44
2024-05-09T05:26:08.783Z,100913.17
2024-05-09T05:31:12.522Z,100915.05
2024-05-09T05:36:16.352Z,100912.11
2024-05-09T05:41:19.616Z,100910.52
2024-05-09T05:46:22.512Z,100905.76
2024-05-09T05:51:50.196Z,100912.54
2024-05-09T05:56:52.891Z,100909.91
2024-05-09T06:01:55.996Z,100908.58
2024-05-09T06:07:01.139Z,100906.24
2024-05-09T06:12:07.150Z,100911.88
2024-05-09T06:17:10.347Z,100909.77
2024-05-09T06:22:13.441Z,100909.83
2024-05-09T06:27:18.871Z,100908.09
2024-05-09T06:32:23.131Z,100906.36
2024-05-09T06:37:43.500Z,100903.37
2024-05-09T06:43:10.560Z,100897.98
2024-05-09T06:48:22.712Z,100891.17
2024-05-09T06:53:29.721Z,100888.45
2024-05-09T06:58:39.363Z,100900.11
2024-05-09T07:03:50.160Z,100902.62
2024-05-09T07:09:00.310Z,100898.46
2024-05-09T07:14:03.501Z,100902.23
2024-05-09T07:19:07.453Z,100896.60
2024-05-09T07:24:13.505Z,100891.33
2024-05-09T07:29:18.796Z,100885.98
2024-05-09T07:34:21.946Z,100892.35
2024-05-09T07:39:25.411Z,100887.94
2024-05-09T07:44:33.116Z,100893.14
2024-05-09T07:55:51.617Z,100889.88
2024-05-09T08:00:31.807Z,100892.16
2024-05-09T08:05:38.454Z,100887.03
2024-05-09T08:10:45.878Z,100886.77
2024-05-09T08:15:52.003Z,100884.80
2024-05-09T08:21:00.325Z,100884.95
2024-05-09T08:26:16.032Z,100878.60
2024-05-09T08:31:26.962Z,100875.98
2024-05-09T08:36:29.993Z,100868.27
2024-05-09T08:41:35.006Z,100864.21
2024-05-09T08:46:38.444Z,100860.95
2024-05-09T08:51:41.752Z,100866.85
2024-05-09T08:56:48.358Z,100859.23
2024-05-09T09:01:51.773Z,100862.45
2024-05-09T09:06:58.132Z,100860.77
2024-05-09T09:12:01.516Z,100854.48
2024-05-09T09:17:15.448Z,100858.67
2024-05-09T09:22:19.860Z,100864.24
2024-05-09T09:27:22.812Z,100864.34
2024-05-09T09:32:29.401Z,100859.50
2024-05-09T09:37:32.752Z,100853.80
2024-05-09T09:42:38.029Z,100847.80
2024-05-09T09:47:46.739Z,100838.02
2024-05-09T09:52:52.141Z,100836.05
2024-05-09T09:57:56.656Z,100837.77
2024-05-09T10:02:59.652Z,100830.60
2024-05-09T10:08:08.618Z,100827.44
2024-05-09T10:13:11.351Z,100815.86
2024-05-09T10:18:15.975Z,100817.49
2024-05-09T10:23:36.355Z,100815.45
2024-05-09T10:28:45.061Z,100805.04
2024-05-09T10:33:51.018Z,100801.60
2024-05-09T10:38:55.615Z,100807.55
2024-05-09T10:43:58.373Z,100809.69
2024-05-09T10:49:04.276Z,100803.02
2024-05-09T10:54:08.999Z,100797.59
2024-05-09T10:59:13.099Z,100794.75
2024-05-09T11:04:16.967Z,100789.77
2024-05-09T11:09:20.443Z,100771.84
2024-05-09T11:14:23.705Z,100768.35
2024-05-09T11:19:34.196Z,100755.02
2024-05-09T11:24:40.657Z,100752.14
2024-05-09T11:29:45.755Z,100745.15
2024-05-09T11:34:48.492Z,100747.77
2024-05-09T11:39:51.569Z,100751.02
2024-05-09T11:44:54.217Z,100744.44
2024-05-09T11:49:56.971Z,100742.91
2024-05-09T11:54:59.788Z,100741.13
2024-05-09T12:00:04.358Z,100736.36
2024-05-09T12:05:08.486Z,100726.33
2024-05-09T12:10:16.788Z,100722.52
2024-05-09T12:15:24.741Z,100719.31
2024-05-09T12:20:35.298Z,100720.95
2024-05-09T12:25:42.999Z,100720.90
2024-05-09T12:30:51.754Z,100715.88
2024-05-09T12:35:59.824Z,100711.30
2024-05-09T12:41:02.835Z,100707.48
2024-05-09T12:53:27.978Z,100707.06
2024-05-09T12:58:31.697Z,100703.25
2024-05-09T13:03:34.797Z,100692.63
2024-05-09T13:08:38.120Z,100693.86
2024-05-09T13:13:41.283Z,100687.11
2024-05-09T13:18:44.590Z,100683.47
2024-05-09T13:23:48.256Z,100673.02
2024-05-09T13:28:50.924Z,100672.03
2024-05-09T13:33:53.492Z,100666.16
2024-05-09T13:38:57.374Z,100658.72
2024-05-09T13:44:01.557Z,100659.43
2024-05-09T13:49:05.601Z,100651.02
2024-05-09T13:54:09.192Z,100645.61
2024-05-09T13:59:12.749Z,100644.01
2024-05-09T14:04:15.648Z,100632.52
2024-05-09T14:09:18.587Z,100623.80
2024-05-09T14:14:21.378Z,100619.84
2024-05-09T14:19:26.169Z,100616.54
2024-05-09T14:24:29.110Z,100609.90
2024-05-09T14:29:33.718Z,100608.47
2024-05-09T14:34:36.411Z,100604.86
2024-05-09T14:39:39.159Z,100608.80
2024-05-09T14:44:41.808Z,100595.70
2024-05-09T14:49:44.854Z,100596.41
2024-05-09T14:54:59.797Z,100594.00
2024-05-09T15:00:06.908Z,100588.61
2024-05-09T15:05:11.777Z,100584.17
2024-05-09T15:10:26.247Z,100576.10
2024-05-09T15:15:34.451Z,100575.55
2024-05-09T15:20:37.899Z,100572.35
2024-05-09T15:25:41.195Z,100571.16
2024-05-09T15:30:46.237Z,100562.53
2024-05-09T15:35:52.077Z,100562.52
2024-05-09T15:40:55.062Z,100562.58
2024-05-09T15:45:57.911Z,100557.18
2024-05-09T15:51:00.759Z,100557.56
2024-05-09T15:56:03.867Z,100551.58
2024-05-09T16:01:07.248Z,100550.70
2024-05-09T16:06:10.185Z,100551.48
2024-05-09T16:11:14.956Z,100546.69
2024-05-09T16:16:18.223Z,100542.95
2024-05-09T16:21:20.972Z,100538.89
2024-05-09T16:26:23.867Z,100540.89
2024-05-09T16:31:27.004Z,100532.73
2024-05-09T16:36:33.237Z,100529.13
2024-05-09T16:41:36.702Z,100522.41
2024-05-09T16:46:41.118Z,100524.27
2024-05-09T16:51:43.764Z,100524.91
2024-05-09T16:56:46.600Z,100526.17
2024-05-09T17:01:49.582Z,100525.27
2024-05-09T17:06:53.905Z,100520.27
2024-05-09T17:11:56.638Z,100524.29
2024-05-09T17:16:59.624Z,100518.04
2024-05-09T17:22:02.517Z,100518.73
2024-05-09T17:27:06.785Z,100511.79
2024-05-09T17:32:09.809Z,100509.70
2024-05-09T17:37:12.774Z,100511.86
2024-05-09T17:42:15.768Z,100506.56
2024-05-09T17:47:18.843Z,100505.33
2024-05-09T17:52:21.708Z,100506.16
2024-05-09T17:57:27.217Z,100507.45
2024-05-09T18:02:30.084Z,100501.89
2024-05-09T18:07:36.131Z,100512.99
2024-05-09T18:12:39.029Z,100518.23
2024-05-09T18:17:42.662Z,100525.45
2024-05-09T18:22:45.355Z,100528.95
2024-05-09T18:27:49.071Z,100529.48
2024-05-09T18:32:52.428Z,100534.33
2024-05-09T18:37:58.770Z,100536.11
2024-05-09T18:43:01.901Z,100539.20
2024-05-09T18:48:07.152Z,100546.55
2024-05-09T18:53:13.148Z,100550.06
2024-05-09T18:58:20.074Z,100554.33
2024-05-09T19:03:24.756Z,100552.12
2024-05-09T19:08:28.792Z,100559.78
2024-05-09T19:13:32.004Z,100557.73
2024-05-09T19:18:45.854Z,100554.41
2024-05-09T19:23:52.265Z,100558.70
2024-05-09T19:28:55.652Z,100562.22
2024-05-09T19:33:58.627Z,100568.22
2024-05-09T19:39:01.424Z,100572.27
2024-05-09T19:44:04.380Z,100570.04
2024-05-09T19:49:08.017Z,100566.25
2024-05-09T19:54:11.001Z,100574.86
2024-05-09T19:59:14.532Z,100572.59
2024-05-09T20:04:17.405Z,100568.19
2024-05-09T20:09:20.179Z,100566.14
2024-05-09T20:14:23.990Z,100572.40
2024-05-09T20:19:26.754Z,100565.73
2024-05-09T20:24:29.515Z,100569.05
2024-05-09T20:29:32.091Z,100572.15
2024-05-09T20:34:35.670Z,100571.61
2024-05-09T20:39:38.532Z,100569.53
2024-05-09T20:44:41.294Z,100568.33
2024-05-09T20:49:46.152Z,100571.09
2024-05-09T20:54:48.958Z,100568.45
2024-05-09T20:59:52.233Z,100568.64
2024-05-09T21:04:54.996Z,100566.36
2024-05-09T21:09:57.833Z,100567.95
2024-05-09T21:15:00.482Z,100568.77
2024-05-09T21:20:07.320Z,100565.60
2024-05-09T21:25:12.893Z,100565.06
2024-05-09T21:30:22.425Z,100560.61
2024-05-09T21:35:33.541Z,100564.17
2024-05-09T21:40:37.960Z,100565.23
2024-05-09T21:45:42.298Z,100567.06
2024-05-09T21:50:45.870Z,100570.25
2024-05-09T21:55:48.651Z,100569.66
2024-05-09T22:00:51.418Z,100570.32
2024-05-09T22:05:54.502Z,100568.58
2024-05-09T22:10:57.392Z,100568.44
2024-05-09T22:16:02.309Z,100567.40
2024-05-09T22:21:05.466Z,100561.06
2024-05-09T22:26:08.206Z,100564.06
2024-05-09T22:31:10.939Z,100558.93
2024-05-09T22:36:13.720Z,100556.29
2024-05-09T22:41:16.564Z,100554.55
2024-05-09T22:46:19.388Z,100548.09
2024-05-09T22:51:22.432Z,100549.14
2024-05-09T22:56:29.248Z,100547.56
2024-05-09T23:01:32.769Z,100545.89
2024-05-09T23:06:35.438Z,100543.95
2024-05-09T23:11:42.125Z,100550.63
2024-05-09T23:16:45.084Z,100550.23
2024-05-09T23:21:47.956Z,100546.27
2024-05-09T23:26:51.617Z,100541.88
2024-05-09T23:31:54.459Z,100536.98
2024-05-09T23:36:57.216Z,100534.85
2024-05-09T23:42:00.864Z,100530.33
2024-05-09T23:47:03.892Z,100527.16
2024-05-09T23:52:07.102Z,100526.13
2024-05-09T23:57:09.836Z,100527.00
